createdAt,value
2023-05-15T00:02:22.714Z,94714.56
2023-05-15T00:04:49.349Z,94714.56
2023-05-15T00:07:15.738Z,94708.75
2023-05-15T00:09:42.141Z,94715.25
2023-05-15T00:12:08.580Z,94715.50
2023-05-15T00:14:34.964Z,94714.75
2023-05-15T00:17:01.401Z,94722.16
2023-05-15T00:19:27.779Z,94712.25
2023-05-15T00:21:54.167Z,94717.56
2023-05-15T00:24:20.590Z,94719.91
2023-05-15T00:26:47.003Z,94716.84
2023-05-15T00:29:13.435Z,94712.53
2023-05-15T00:31:39.902Z,94720.25
2023-05-15T00:34:06.424Z,94719.78
2023-05-15T00:36:32.814Z,94719.44
2023-05-15T00:38:59.206Z,94715.97
2023-05-15T00:41:25.634Z,94719.19
2023-05-15T00:43:52.117Z,94720.28
2023-05-15T00:46:18.648Z,94716.47
2023-05-15T00:48:45.085Z,94714.84
2023-05-15T00:51:11.497Z,94706.59
2023-05-15T00:53:37.904Z,94712.72
2023-05-15T00:56:04.318Z,94709.84
2023-05-15T00:58:31.253Z,94703.03
2023-05-15T01:00:57.750Z,94701.88
2023-05-15T01:03:24.245Z,94698.41
2023-05-15T01:05:50.733Z,94687.78
2023-05-15T01:08:17.099Z,94690.78
2023-05-15T01:10:43.507Z,94693.66
2023-05-15T01:13:09.890Z,94683.28
2023-05-15T01:15:36.335Z,94685.03
2023-05-15T01:18:02.758Z,94676.94
2023-05-15T01:20:29.178Z,94674.97
2023-05-15T01:22:55.617Z,94683.34
2023-05-15T01:25:22.062Z,94678.03
2023-05-15T01:27:48.526Z,94670.13
2023-05-15T01:30:17.019Z,94678.16
2023-05-15T01:32:43.459Z,94677.28
2023-05-15T01:35:09.896Z,94675.53
2023-05-15T01:37:36.313Z,94675.03
2023-05-15T01:40:02.770Z,94675.22
2023-05-15T01:42:29.161Z,94674.34
2023-05-15T01:44:55.524Z,94677.97
2023-05-15T01:47:21.890Z,94679.81
2023-05-15T01:49:48.262Z,94687.31
2023-05-15T01:52:14.755Z,94688.22
2023-05-15T01:54:41.133Z,94688.66
2023-05-15T01:57:07.520Z,94684.84
2023-05-15T01:59:33.954Z,94692.06
2023-05-15T02:02:00.446Z,94687.16
2023-05-15T02:04:26.862Z,94678.38
2023-05-15T02:06:53.255Z,94690.44
2023-05-15T02:09:19.617Z,94686.97
2023-05-15T02:11:45.987Z,94694.47
2023-05-15T02:14:12.409Z,94691.34
2023-05-15T02:16:38.975Z,94695.56
2023-05-15T02:19:05.464Z,94697.94
2023-05-15T02:21:32.543Z,94696.53
2023-05-15T02:23:58.907Z,94703.75
2023-05-15T02:26:25.294Z,94701.97
2023-05-15T02:28:51.729Z,94697.88
2023-05-15T02:31:18.162Z,94699.97
2023-05-15T02:33:44.596Z,94699.41
2023-05-15T02:36:10.993Z,94688.97
2023-05-15T02:38:37.428Z,94677.44
2023-05-15T02:41:03.818Z,94671.69
2023-05-15T02:43:30.255Z,94671.97
2023-05-15T02:45:56.682Z,94677.53
2023-05-15T02:48:23.069Z,94676.56
2023-05-15T02:50:49.442Z,94667.72
2023-05-15T02:53:15.812Z,94681.63
2023-05-15T02:55:42.214Z,94673.38
2023-05-15T02:58:08.644Z,94682.28
2023-05-15T03:00:35.054Z,94682.47
2023-05-15T03:03:01.452Z,94686.63
2023-05-15T03:05:28.037Z,94682.25
2023-05-15T03:07:54.698Z,94682.81
2023-05-15T03:10:21.092Z,94679.44
2023-05-15T03:12:47.514Z,94683.09
2023-05-15T03:15:13.916Z,94683.78
2023-05-15T03:17:40.348Z,94689.09
2023-05-15T03:20:06.846Z,94680.66
2023-05-15T03:22:33.296Z,94682.16
2023-05-15T03:24:59.670Z,94676.03
2023-05-15T03:27:26.047Z,94679.03
2023-05-15T03:29:52.450Z,94684.69
2023-05-15T03:32:18.815Z,94682.38
2023-05-15T03:34:45.195Z,94681.97
2023-05-15T03:37:11.579Z,94679.72
2023-05-15T03:39:38.020Z,94683.25
2023-05-15T03:42:04.464Z,94680.47
2023-05-15T03:44:30.859Z,94682.78
2023-05-15T03:46:57.323Z,94680.47
2023-05-15T03:49:23.830Z,94687.28
2023-05-15T03:51:50.214Z,94677.75
2023-05-15T03:54:16.651Z,94670.47
2023-05-15T03:56:43.049Z,94674.97
2023-05-15T03:59:09.549Z,94683.41
2023-05-15T04:01:47.289Z,94678.09
2023-05-15T04:04:23.061Z,94673.47
2023-05-15T04:06:49.468Z,94675.09
2023-05-15T04:09:15.826Z,94672.25
2023-05-15T04:11:42.276Z,94670.41
2023-05-15T04:14:08.656Z,94674.22
2023-05-15T04:16:35.098Z,94684.78
2023-05-15T04:19:01.593Z,94673.41
2023-05-15T04:21:28.025Z,94679.59
2023-05-15T04:23:54.447Z,94666.25
2023-05-15T04:26:20.895Z,94670.00
2023-05-15T04:29:00.084Z,94665.63
2023-05-15T04:31:30.309Z,94662.84
2023-05-15T04:33:56.727Z,94667.47
2023-05-15T04:36:23.111Z,94669.09
2023-05-15T04:38:49.559Z,94663.44
2023-05-15T04:41:16.038Z,94669.91
2023-05-15T04:43:42.403Z,94673.19
2023-05-15T04:46:08.836Z,94672.72
2023-05-15T04:48:35.277Z,94674.63
2023-05-15T04:51:01.673Z,94678.91
2023-05-15T04:53:28.111Z,94679.13
2023-05-15T04:55:54.516Z,94680.41
2023-05-15T04:58:20.884Z,94684.28
2023-05-15T05:00:47.277Z,94691.63
2023-05-15T05:03:13.764Z,94687.81
2023-05-15T05:05:40.196Z,94683.66
2023-05-15T05:08:06.730Z,94696.59
2023-05-15T05:10:33.137Z,94691.28
2023-05-15T05:12:59.560Z,94693.00
2023-05-15T05:15:26.110Z,94699.41
2023-05-15T05:17:52.820Z,94692.53
2023-05-15T05:20:19.219Z,94699.34
2023-05-15T05:22:45.609Z,94707.22
2023-05-15T05:25:12.010Z,94711.31
2023-05-15T05:27:38.433Z,94704.09
2023-05-15T05:30:04.905Z,94710.03
2023-05-15T05:32:31.356Z,94694.41
2023-05-15T05:34:57.839Z,94695.97
2023-05-15T05:37:24.232Z,94694.34
2023-05-15T05:39:50.679Z,94699.13
2023-05-15T05:42:17.075Z,94695.47
2023-05-15T05:44:43.542Z,94694.19
2023-05-15T05:47:09.993Z,94688.38
2023-05-15T05:49:36.432Z,94694.66
2023-05-15T05:52:02.829Z,94691.25
2023-05-15T05:54:29.197Z,94689.75
2023-05-15T05:56:55.584Z,94691.38
2023-05-15T05:59:21.948Z,94688.94
2023-05-15T06:01:48.363Z,94697.47
2023-05-15T06:04:16.146Z,94690.91
2023-05-15T06:06:43.282Z,94685.66
2023-05-15T06:09:09.681Z,94691.13
2023-05-15T06:11:36.090Z,94695.78
2023-05-15T06:14:02.526Z,94690.72
2023-05-15T06:16:28.960Z,94691.47
2023-05-15T06:18:55.442Z,94690.41
2023-05-15T06:21:21.857Z,94697.34
2023-05-15T06:23:48.228Z,94698.28
2023-05-15T06:26:14.677Z,94703.59
2023-05-15T06:28:41.064Z,94707.50
2023-05-15T06:31:07.507Z,94707.97
2023-05-15T06:33:33.948Z,94713.28
2023-05-15T06:36:00.350Z,94712.28
2023-05-15T06:38:26.728Z,94711.75
2023-05-15T06:40:53.126Z,94711.41
2023-05-15T06:43:19.539Z,94713.53
2023-05-15T06:45:46.018Z,94715.09
2023-05-15T06:48:12.507Z,94708.91
2023-05-15T06:50:39.020Z,94708.91
2023-05-15T06:53:05.463Z,94707.44
2023-05-15T06:55:31.838Z,94711.81
2023-05-15T06:57:58.278Z,94712.41
2023-05-15T07:00:24.637Z,94705.69
2023-05-15T07:02:51.047Z,94704.31
2023-05-15T07:05:17.513Z,94705.19
2023-05-15T07:07:43.924Z,94706.66
2023-05-15T07:10:10.333Z,94705.41
2023-05-15T07:12:36.721Z,94699.59
2023-05-15T07:15:03.101Z,94703.28
2023-05-15T07:17:29.571Z,94704.13
2023-05-15T07:19:56.010Z,94699.31
2023-05-15T07:22:22.399Z,94711.88
2023-05-15T07:24:48.813Z,94710.06
2023-05-15T07:27:15.188Z,94712.88
2023-05-15T07:29:41.641Z,94717.22
2023-05-15T07:32:08.039Z,94715.06
2023-05-15T07:34:34.471Z,94714.78
2023-05-15T07:37:00.846Z,94713.72
2023-05-15T07:39:27.301Z,94716.69
2023-05-15T07:41:53.737Z,94709.84
2023-05-15T07:44:20.180Z,94704.50
2023-05-15T07:46:46.669Z,94714.66
2023-05-15T07:49:13.102Z,94714.75
2023-05-15T07:51:39.701Z,94707.66
2023-05-15T07:54:06.077Z,94709.91
2023-05-15T07:56:32.445Z,94702.81
2023-05-15T07:58:58.885Z,94702.53
2023-05-15T08:01:25.253Z,94706.72
2023-05-15T08:03:51.822Z,94697.16
2023-05-15T08:06:18.258Z,94697.56
2023-05-15T08:08:44.628Z,94692.38
2023-05-15T08:11:11.071Z,94688.97
2023-05-15T08:13:37.434Z,94681.44
2023-05-15T08:16:03.845Z,94682.94
2023-05-15T08:18:30.312Z,94690.53
2023-05-15T08:20:56.753Z,94688.38
2023-05-15T08:23:23.152Z,94689.88
2023-05-15T08:25:49.790Z,94679.00
2023-05-15T08:28:16.238Z,94681.13
2023-05-15T08:30:42.644Z,94676.34
2023-05-15T08:33:09.150Z,94679.75
2023-05-15T08:35:35.647Z,94677.81
2023-05-15T08:38:02.113Z,94677.34
2023-05-15T08:40:38.424Z,94687.06
2023-05-15T08:43:05.864Z,94685.44
2023-05-15T08:45:32.225Z,94690.00
2023-05-15T08:47:58.675Z,94688.78
2023-05-15T08:50:25.185Z,94682.28
2023-05-15T08:52:51.584Z,94690.94
2023-05-15T08:55:18.015Z,94684.44
2023-05-15T08:57:44.477Z,94684.72
2023-05-15T09:00:10.874Z,94669.38
2023-05-15T09:02:37.359Z,94675.78
2023-05-15T09:05:03.932Z,94671.00
2023-05-15T09:07:30.287Z,94662.63
2023-05-15T09:09:56.675Z,94658.59
2023-05-15T09:12:23.078Z,94662.72
2023-05-15T09:14:49.464Z,94651.81
2023-05-15T09:17:15.850Z,94655.81
2023-05-15T09:19:42.334Z,94659.34
2023-05-15T09:22:08.828Z,94654.13
2023-05-15T09:24:35.197Z,94642.56
2023-05-15T09:27:01.620Z,94644.03
2023-05-15T09:29:28.070Z,94638.47
2023-05-15T09:31:54.579Z,94637.84
2023-05-15T09:34:21.007Z,94626.88
2023-05-15T09:36:47.412Z,94629.78
2023-05-15T09:39:13.897Z,94620.53
2023-05-15T09:41:40.340Z,94625.75
2023-05-15T09:44:06.788Z,94631.50
2023-05-15T09:46:33.291Z,94639.69
2023-05-15T09:48:59.739Z,94630.16
2023-05-15T09:51:26.108Z,94630.31
2023-05-15T09:53:52.518Z,94627.03
2023-05-15T09:56:18.893Z,94623.03
2023-05-15T09:58:45.290Z,94632.53
2023-05-15T10:01:11.750Z,94628.00
2023-05-15T10:03:38.127Z,94632.34
2023-05-15T10:06:04.734Z,94631.34
2023-05-15T10:08:31.434Z,94626.19
2023-05-15T10:10:57.823Z,94633.63
2023-05-15T10:13:24.197Z,94629.66
2023-05-15T10:15:50.649Z,94622.38
2023-05-15T10:18:17.045Z,94629.84
2023-05-15T10:20:43.429Z,94627.59
2023-05-15T10:23:09.800Z,94616.72
2023-05-15T10:25:36.250Z,94620.38
2023-05-15T10:28:02.642Z,94618.78
2023-05-15T10:30:29.055Z,94611.28
2023-05-15T10:32:55.634Z,94605.47
2023-05-15T10:35:22.052Z,94604.44
2023-05-15T10:37:48.461Z,94599.03
2023-05-15T10:40:14.869Z,94596.09
2023-05-15T10:42:41.314Z,94586.81
2023-05-15T10:45:07.768Z,94582.56
2023-05-15T10:47:34.168Z,94585.75
2023-05-15T10:50:00.600Z,94582.13
2023-05-15T10:52:27.006Z,94580.97
2023-05-15T10:54:53.406Z,94573.38
2023-05-15T10:57:19.863Z,94574.25
2023-05-15T10:59:46.267Z,94565.03
2023-05-15T11:02:12.659Z,94561.06
2023-05-15T11:04:39.101Z,94558.06
2023-05-15T11:07:05.547Z,94555.53
2023-05-15T11:09:31.962Z,94545.59
2023-05-15T11:11:58.334Z,94550.97
2023-05-15T11:14:24.736Z,94547.69
2023-05-15T11:16:51.255Z,94540.16
2023-05-15T11:19:17.767Z,94539.41
2023-05-15T11:21:44.199Z,94542.28
2023-05-15T11:24:10.607Z,94543.50
2023-05-15T11:26:37.007Z,94543.94
2023-05-15T11:29:03.411Z,94540.09
2023-05-15T11:31:29.870Z,94533.81
2023-05-15T11:33:56.301Z,94532.34
2023-05-15T11:36:22.705Z,94529.53
2023-05-15T11:38:49.243Z,94545.94
2023-05-15T11:41:15.650Z,94541.16
2023-05-15T11:43:42.046Z,94544.34
2023-05-15T11:46:08.664Z,94548.66
2023-05-15T11:48:35.204Z,94544.59
2023-05-15T11:51:01.713Z,94545.31
2023-05-15T11:53:28.156Z,94539.75
2023-05-15T11:55:54.602Z,94545.50
2023-05-15T11:58:21.081Z,94557.00
2023-05-15T12:00:47.514Z,94537.25
2023-05-15T12:03:14.013Z,94542.53
2023-05-15T12:05:50.257Z,94538.50
2023-05-15T12:08:24.379Z,94543.72
2023-05-15T12:10:50.776Z,94543.59
2023-05-15T12:13:17.134Z,94538.91
2023-05-15T12:15:43.580Z,94541.44
2023-05-15T12:18:09.962Z,94545.56
2023-05-15T12:20:36.353Z,94538.81
2023-05-15T12:23:02.776Z,94538.06
2023-05-15T12:25:29.169Z,94536.56
2023-05-15T12:27:55.574Z,94539.44
2023-05-15T12:30:21.984Z,94533.38
2023-05-15T12:32:48.492Z,94539.22
2023-05-15T12:35:15.001Z,94534.47
2023-05-15T12:37:41.417Z,94530.66
2023-05-15T12:40:07.795Z,94534.50
2023-05-15T12:42:34.171Z,94528.75
2023-05-15T12:45:00.587Z,94539.94
2023-05-15T12:47:27.004Z,94544.56
2023-05-15T12:49:53.404Z,94555.75
2023-05-15T12:52:19.785Z,94555.56
2023-05-15T12:54:46.167Z,94573.88
2023-05-15T12:57:12.618Z,94566.66
2023-05-15T12:59:39.038Z,94564.94
2023-05-15T13:02:05.446Z,94576.47
2023-05-15T13:04:32.087Z,94579.44
2023-05-15T13:06:58.510Z,94583.81
2023-05-15T13:09:25.099Z,94586.19
2023-05-15T13:11:51.459Z,94593.66
2023-05-15T13:14:17.892Z,94583.72
2023-05-15T13:16:44.307Z,94569.44
2023-05-15T13:19:10.740Z,94569.53
2023-05-15T13:21:37.201Z,94570.03
2023-05-15T13:24:03.603Z,94571.22
2023-05-15T13:26:29.994Z,94563.31
2023-05-15T13:28:56.340Z,94571.00
2023-05-15T13:31:22.944Z,94563.97
2023-05-15T13:33:49.346Z,94566.44
2023-05-15T13:36:15.842Z,94561.34
2023-05-15T13:38:42.245Z,94554.75
2023-05-15T13:41:08.656Z,94556.34
2023-05-15T13:43:35.133Z,94549.97
2023-05-15T13:46:01.510Z,94549.97
2023-05-15T13:48:27.931Z,94550.47
2023-05-15T13:50:54.331Z,94542.31
2023-05-15T13:53:20.756Z,94546.78
2023-05-15T13:55:47.254Z,94534.19
2023-05-15T13:58:13.674Z,94551.25
2023-05-15T14:00:40.098Z,94547.22
2023-05-15T14:03:06.665Z,94550.22
2023-05-15T14:05:33.153Z,94548.72
2023-05-15T14:07:59.539Z,94552.13
2023-05-15T14:10:26.168Z,94548.72
2023-05-15T14:12:52.761Z,94548.09
2023-05-15T14:15:19.163Z,94544.47
2023-05-15T14:17:45.605Z,94550.66
2023-05-15T14:20:12.026Z,94546.81
2023-05-15T14:22:38.400Z,94548.09
2023-05-15T14:25:04.856Z,94548.63
2023-05-15T14:27:31.257Z,94546.59
2023-05-15T14:29:57.662Z,94546.47
2023-05-15T14:32:25.407Z,94551.06
2023-05-15T14:34:51.825Z,94546.06
2023-05-15T14:37:18.217Z,94545.06
2023-05-15T14:39:44.601Z,94551.50
2023-05-15T14:42:11.054Z,94554.72
2023-05-15T14:44:37.457Z,94558.44
2023-05-15T14:47:03.842Z,94549.78
2023-05-15T14:49:30.264Z,94553.19
2023-05-15T14:51:56.614Z,94552.34
2023-05-15T14:54:23.044Z,94554.34
2023-05-15T14:56:49.424Z,94547.59
2023-05-15T14:59:15.864Z,94549.91
2023-05-15T15:01:42.343Z,94548.94
2023-05-15T15:04:09.019Z,94547.19
2023-05-15T15:06:35.441Z,94558.41
2023-05-15T15:09:01.846Z,94555.78
2023-05-15T15:11:28.210Z,94568.06
2023-05-15T15:13:54.671Z,94567.72
2023-05-15T15:16:21.141Z,94559.03
2023-05-15T15:18:47.759Z,94565.06
2023-05-15T15:21:14.219Z,94565.94
2023-05-15T15:23:40.587Z,94564.78
2023-05-15T15:26:07.109Z,94582.66
2023-05-15T15:28:33.572Z,94586.81
2023-05-15T15:31:00.010Z,94582.22
2023-05-15T15:33:26.499Z,94588.53
2023-05-15T15:35:52.919Z,94575.81
2023-05-15T15:38:19.320Z,94581.56
2023-05-15T15:40:45.739Z,94580.06
2023-05-15T15:43:12.108Z,94574.72
2023-05-15T15:45:38.508Z,94572.50
2023-05-15T15:48:05.065Z,94571.75
2023-05-15T15:50:31.480Z,94567.69
2023-05-15T15:52:57.875Z,94569.19
2023-05-15T15:55:24.357Z,94568.47
2023-05-15T15:57:50.843Z,94555.34
2023-05-15T16:00:17.307Z,94563.13
2023-05-15T16:02:43.738Z,94558.53
2023-05-15T16:05:10.209Z,94561.31
2023-05-15T16:07:36.633Z,94562.78
2023-05-15T16:10:12.601Z,94566.94
2023-05-15T16:12:39.468Z,94560.44
2023-05-15T16:15:21.016Z,94565.03
2023-05-15T16:17:48.660Z,94558.72
2023-05-15T16:20:15.060Z,94563.97
2023-05-15T16:22:41.473Z,94565.38
2023-05-15T16:25:07.952Z,94576.69
2023-05-15T16:27:34.467Z,94572.50
2023-05-15T16:30:00.928Z,94572.84
2023-05-15T16:32:27.439Z,94572.19
2023-05-15T16:34:53.852Z,94576.78
2023-05-15T16:37:20.235Z,94577.09
2023-05-15T16:39:46.707Z,94572.94
2023-05-15T16:42:13.078Z,94574.22
2023-05-15T16:44:39.578Z,94565.25
2023-05-15T16:47:05.958Z,94566.31
2023-05-15T16:49:32.372Z,94566.75
2023-05-15T16:51:58.855Z,94569.44
2023-05-15T16:54:25.281Z,94566.75
2023-05-15T16:56:51.702Z,94572.00
2023-05-15T16:59:18.090Z,94571.78
2023-05-15T17:01:44.621Z,94565.38
2023-05-15T17:04:11.103Z,94577.97
2023-05-15T17:06:37.565Z,94575.28
2023-05-15T17:09:03.949Z,94579.66
2023-05-15T17:11:30.369Z,94586.03
2023-05-15T17:13:56.734Z,94579.97
2023-05-15T17:16:23.189Z,94584.75
2023-05-15T17:18:49.609Z,94590.91
2023-05-15T17:21:15.999Z,94588.59
2023-05-15T17:23:42.384Z,94591.34
2023-05-15T17:26:08.772Z,94586.66
2023-05-15T17:28:36.291Z,94596.78
2023-05-15T17:31:04.304Z,94593.91
2023-05-15T17:33:30.669Z,94595.50
2023-05-15T17:35:57.149Z,94597.63
2023-05-15T17:38:23.510Z,94603.47
2023-05-15T17:40:49.945Z,94599.13
2023-05-15T17:43:16.345Z,94602.38
2023-05-15T17:45:42.796Z,94610.16
2023-05-15T17:48:09.310Z,94607.16
2023-05-15T17:50:37.712Z,94613.13
2023-05-15T17:53:04.278Z,94623.13
2023-05-15T17:55:30.661Z,94620.81
2023-05-15T17:57:57.045Z,94624.91
2023-05-15T18:00:23.439Z,94621.91
2023-05-15T18:02:49.904Z,94630.00
2023-05-15T18:05:16.361Z,94641.06
2023-05-15T18:07:42.846Z,94645.00
2023-05-15T18:10:09.283Z,94637.25
2023-05-15T18:12:35.690Z,94643.56
2023-05-15T18:15:02.104Z,94643.66
2023-05-15T18:17:28.530Z,94640.66
2023-05-15T18:19:54.967Z,94640.59
2023-05-15T18:22:21.399Z,94640.25
2023-05-15T18:24:47.818Z,94633.72
2023-05-15T18:27:14.333Z,94635.66
2023-05-15T18:29:40.754Z,94638.59
2023-05-15T18:32:07.317Z,94631.59
2023-05-15T18:34:33.742Z,94631.00
2023-05-15T18:37:00.198Z,94632.34
2023-05-15T18:39:26.646Z,94633.34
2023-05-15T18:41:53.099Z,94639.31
2023-05-15T18:44:19.598Z,94640.81
2023-05-15T18:46:46.076Z,94645.56
2023-05-15T18:49:16.106Z,94638.16
2023-05-15T18:51:42.628Z,94636.66
2023-05-15T18:54:09.099Z,94639.91
2023-05-15T18:56:35.534Z,94641.50
2023-05-15T18:59:01.969Z,94643.00
2023-05-15T19:01:28.401Z,94645.25
2023-05-15T19:03:54.945Z,94641.97
2023-05-15T19:06:21.683Z,94636.47
2023-05-15T19:08:48.182Z,94641.94
2023-05-15T19:11:14.690Z,94632.59
2023-05-15T19:13:41.248Z,94632.63
2023-05-15T19:16:10.051Z,94635.28
2023-05-15T19:18:36.656Z,94633.66
2023-05-15T19:21:03.145Z,94629.47
2023-05-15T19:23:29.698Z,94636.66
2023-05-15T19:25:56.170Z,94630.16
2023-05-15T19:28:22.715Z,94637.16
2023-05-15T19:30:49.238Z,94635.34
2023-05-15T19:33:15.754Z,94640.75
2023-05-15T19:35:42.287Z,94644.34
2023-05-15T19:38:08.734Z,94636.75
2023-05-15T19:40:35.130Z,94637.59
2023-05-15T19:43:01.639Z,94640.50
2023-05-15T19:45:30.222Z,94639.50
2023-05-15T19:47:56.790Z,94645.00
2023-05-15T19:50:23.320Z,94644.75
2023-05-15T19:52:49.805Z,94637.34
2023-05-15T19:55:16.282Z,94636.50
2023-05-15T19:57:42.788Z,94647.66
2023-05-15T20:00:09.312Z,94633.19
2023-05-15T20:02:35.828Z,94642.66
2023-05-15T20:05:02.348Z,94632.69
2023-05-15T20:07:28.802Z,94639.69
2023-05-15T20:09:55.223Z,94641.84
2023-05-15T20:12:21.676Z,94633.53
2023-05-15T20:14:48.204Z,94637.59
2023-05-15T20:17:14.624Z,94646.00
2023-05-15T20:19:41.048Z,94645.97
2023-05-15T20:22:07.469Z,94638.28
2023-05-15T20:24:33.899Z,94643.00
2023-05-15T20:27:00.288Z,94638.16
2023-05-15T20:29:26.714Z,94639.16
2023-05-15T20:31:53.395Z,94636.44
2023-05-15T20:34:19.884Z,94635.69
2023-05-15T20:36:46.369Z,94640.66
2023-05-15T20:39:12.738Z,94639.44
2023-05-15T20:41:39.114Z,94640.84
2023-05-15T20:44:05.560Z,94641.34
2023-05-15T20:46:32.139Z,94639.44
2023-05-15T20:48:58.612Z,94648.00
2023-05-15T20:51:25.004Z,94649.31
2023-05-15T20:53:51.428Z,94644.50
2023-05-15T20:56:17.818Z,94641.34
2023-05-15T20:58:44.208Z,94634.66
2023-05-15T21:01:10.656Z,94629.88
2023-05-15T21:03:37.138Z,94638.00
2023-05-15T21:06:03.591Z,94642.91
2023-05-15T21:08:29.963Z,94641.84
2023-05-15T21:10:56.685Z,94641.34
2023-05-15T21:13:23.112Z,94641.66
2023-05-15T21:15:49.540Z,94639.94
2023-05-15T21:18:15.930Z,94627.88
2023-05-15T21:20:42.331Z,94624.63
2023-05-15T21:23:08.735Z,94629.19
2023-05-15T21:25:35.177Z,94625.69
2023-05-15T21:28:01.578Z,94628.53
2023-05-15T21:30:28.081Z,94625.88
2023-05-15T21:32:54.719Z,94625.78
2023-05-15T21:35:21.135Z,94624.78
2023-05-15T21:37:47.542Z,94633.94
2023-05-15T21:40:13.942Z,94622.22
2023-05-15T21:42:40.366Z,94620.47
2023-05-15T21:45:07.065Z,94618.56
2023-05-15T21:47:33.576Z,94616.88
2023-05-15T21:49:59.959Z,94620.47
2023-05-15T21:52:26.333Z,94616.56
2023-05-15T21:54:52.713Z,94614.38
2023-05-15T21:57:19.120Z,94608.66
2023-05-15T21:59:45.598Z,94612.56
2023-05-15T22:02:12.083Z,94611.56
2023-05-15T22:04:38.600Z,94606.81
2023-05-15T22:07:04.976Z,94594.44
2023-05-15T22:09:31.446Z,94593.94
2023-05-15T22:11:57.818Z,94602.84
2023-05-15T22:14:24.348Z,94600.78
2023-05-15T22:16:51.044Z,94597.72
2023-05-15T22:19:31.676Z,94602.38
2023-05-15T22:21:59.314Z,94589.50
2023-05-15T22:24:25.701Z,94592.47
2023-05-15T22:26:52.086Z,94603.03
2023-05-15T22:29:18.503Z,94599.56
2023-05-15T22:31:44.950Z,94598.56
2023-05-15T22:34:11.366Z,94602.91
2023-05-15T22:36:37.740Z,94601.13
2023-05-15T22:39:04.148Z,94600.38
2023-05-15T22:41:30.532Z,94594.72
2023-05-15T22:43:56.913Z,94601.88
2023-05-15T22:46:23.434Z,94602.72
2023-05-15T22:48:49.902Z,94601.22
2023-05-15T22:51:16.306Z,94597.31
2023-05-15T22:53:42.701Z,94594.31
2023-05-15T22:56:09.200Z,94588.25
2023-05-15T22:58:35.591Z,94591.25
2023-05-15T23:01:02.015Z,94579.94
2023-05-15T23:03:28.514Z,94584.44
2023-05-15T23:05:54.936Z,94578.97
2023-05-15T23:08:21.497Z,94579.75
2023-05-15T23:10:47.873Z,94573.03
2023-05-15T23:13:14.281Z,94572.69
2023-05-15T23:15:40.766Z,94576.44
2023-05-15T23:18:07.240Z,94574.78
2023-05-15T23:20:33.668Z,94564.97
2023-05-15T23:23:00.123Z,94569.53
2023-05-15T23:25:26.501Z,94561.16
2023-05-15T23:27:52.908Z,94555.41
2023-05-15T23:30:19.367Z,94554.13
2023-05-15T23:32:45.833Z,94560.13
2023-05-15T23:35:12.253Z,94564.69
2023-05-15T23:37:38.636Z,94567.09
2023-05-15T23:40:05.027Z,94560.78
2023-05-15T23:42:31.422Z,94558.78
2023-05-15T23:44:57.854Z,94564.59
2023-05-15T23:47:24.320Z,94556.97
2023-05-15T23:49:50.731Z,94555.78
2023-05-15T23:52:17.126Z,94560.94
2023-05-15T23:54:43.528Z,94560.59
2023-05-15T23:57:09.898Z,94553.31
2023-05-15T23:59:36.345Z,94561.09
